sensor_id;sensor_type;location;lat;lon;timestamp;P1;durP1;ratioP1;P2;durP2;ratioP2
85652;SDS011;76083;49.012;8.384;2024-02-28T00:00:42;7.18;;;5.93;;
85652;SDS011;76083;49.012;8.384;2024-02-28T00:01:49;6.57;;;5.80;;
85652;SDS011;76083;49.012;8.384;2024-02-28T00:02:50;6.43;;;5.30;;
85652;SDS011;76083;49.012;8.384;2024-02-28T00:03:50;6.13;;;5.53;;
85652;SDS011;76083;49.012;8.384;2024-02-28T00:04:50;5.88;;;5.28;;
85652;SDS011;76083;49.012;8.384;2024-02-28T00:05:51;7.07;;;5.82;;
85652;SDS011;76083;49.012;8.384;2024-02-28T00:06:51;8.20;;;5.60;;
85652;SDS011;76083;49.012;8.384;2024-02-28T00:07:51;6.10;;;5.50;;
85652;SDS011;76083;49.012;8.384;2024-02-28T00:08:51;7.65;;;5.90;;
85652;SDS011;76083;49.012;8.384;2024-02-28T00:09:52;6.07;;;5.22;;
85652;SDS011;76083;49.012;8.384;2024-02-28T00:10:52;7.70;;;5.45;;
85652;SDS011;76083;49.012;8.384;2024-02-28T00:11:52;6.03;;;5.43;;
85652;SDS011;76083;49.012;8.384;2024-02-28T00:12:52;7.10;;;6.05;;
85652;SDS011;76083;49.012;8.384;2024-02-28T00:13:53;5.95;;;5.38;;
85652;SDS011;76083;49.012;8.384;2024-02-28T00:14:53;8.23;;;5.40;;
85652;SDS011;76083;49.012;8.384;2024-02-28T00:15:53;9.02;;;5.60;;
85652;SDS011;76083;49.012;8.384;2024-02-28T00:16:53;5.95;;;5.28;;
85652;SDS011;76083;49.012;8.384;2024-02-28T00:17:54;7.03;;;5.40;;
85652;SDS011;76083;49.012;8.384;2024-02-28T00:18:54;6.35;;;5.53;;
85652;SDS011;76083;49.012;8.384;2024-02-28T00:19:54;5.32;;;4.82;;
85652;SDS011;76083;49.012;8.384;2024-02-28T00:20:55;6.43;;;5.30;;
85652;SDS011;76083;49.012;8.384;2024-02-28T00:21:55;6.85;;;5.43;;
85652;SDS011;76083;49.012;8.384;2024-02-28T00:22:55;6.13;;;5.30;;
85652;SDS011;76083;49.012;8.384;2024-02-28T00:23:55;8.60;;;5.78;;
85652;SDS011;76083;49.012;8.384;2024-02-28T00:24:56;5.60;;;5.00;;
85652;SDS011;76083;49.012;8.384;2024-02-28T00:25:56;6.20;;;5.25;;
85652;SDS011;76083;49.012;8.384;2024-02-28T00:26:56;6.82;;;5.47;;
85652;SDS011;76083;49.012;8.384;2024-02-28T00:27:56;7.63;;;5.38;;
85652;SDS011;76083;49.012;8.384;2024-02-28T00:28:56;6.68;;;5.65;;
85652;SDS011;76083;49.012;8.384;2024-02-28T00:29:57;10.40;;;5.63;;
85652;SDS011;76083;49.012;8.384;2024-02-28T00:30:57;6.05;;;5.45;;
85652;SDS011;76083;49.012;8.384;2024-02-28T00:31:57;7.43;;;5.30;;
85652;SDS011;76083;49.012;8.384;2024-02-28T00:32:57;6.68;;;5.60;;
85652;SDS011;76083;49.012;8.384;2024-02-28T00:33:58;5.18;;;4.50;;
85652;SDS011;76083;49.012;8.384;2024-02-28T00:34:58;6.22;;;5.25;;
85652;SDS011;76083;49.012;8.384;2024-02-28T00:35:58;5.50;;;4.90;;
85652;SDS011;76083;49.012;8.384;2024-02-28T00:36:59;7.15;;;5.63;;
85652;SDS011;76083;49.012;8.384;2024-02-28T00:37:59;6.68;;;5.07;;
85652;SDS011;76083;49.012;8.384;2024-02-28T00:38:59;5.95;;;5.20;;
85652;SDS011;76083;49.012;8.384;2024-02-28T00:39:59;7.82;;;5.50;;
85652;SDS011;76083;49.012;8.384;2024-02-28T00:41:00;6.53;;;5.05;;
85652;SDS011;76083;49.012;8.384;2024-02-28T00:42:00;6.15;;;5.30;;
85652;SDS011;76083;49.012;8.384;2024-02-28T00:43:00;5.57;;;4.93;;
85652;SDS011;76083;49.012;8.384;2024-02-28T00:44:02;6.10;;;5.50;;
85652;SDS011;76083;49.012;8.384;2024-02-28T00:45:02;6.68;;;4.95;;
85652;SDS011;76083;49.012;8.384;2024-02-28T00:46:03;5.78;;;5.15;;
85652;SDS011;76083;49.012;8.384;2024-02-28T00:47:03;7.00;;;5.88;;
85652;SDS011;76083;49.012;8.384;2024-02-28T00:48:04;6.22;;;5.05;;
85652;SDS011;76083;49.012;8.384;2024-02-28T00:49:04;9.15;;;5.78;;
85652;SDS011;76083;49.012;8.384;2024-02-28T00:50:05;7.20;;;5.50;;
85652;SDS011;76083;49.012;8.384;2024-02-28T00:51:05;5.72;;;4.88;;
85652;SDS011;76083;49.012;8.384;2024-02-28T00:52:05;6.65;;;5.53;;
85652;SDS011;76083;49.012;8.384;2024-02-28T00:53:05;6.57;;;5.38;;
85652;SDS011;76083;49.012;8.384;2024-02-28T00:54:06;6.78;;;5.80;;
85652;SDS011;76083;49.012;8.384;2024-02-28T00:55:06;5.95;;;4.97;;
85652;SDS011;76083;49.012;8.384;2024-02-28T00:56:06;5.65;;;5.15;;
85652;SDS011;76083;49.012;8.384;2024-02-28T00:57:07;5.95;;;5.35;;
85652;SDS011;76083;49.012;8.384;2024-02-28T00:58:07;5.90;;;5.18;;
85652;SDS011;76083;49.012;8.384;2024-02-28T00:59:07;7.43;;;4.95;;
85652;SDS011;76083;49.012;8.384;2024-02-28T01:00:07;6.80;;;5.60;;
85652;SDS011;76083;49.012;8.384;2024-02-28T01:01:08;6.50;;;4.97;;
85652;SDS011;76083;49.012;8.384;2024-02-28T01:02:08;6.00;;;5.05;;
85652;SDS011;76083;49.012;8.384;2024-02-28T01:03:08;7.72;;;5.47;;
85652;SDS011;76083;49.012;8.384;2024-02-28T01:04:09;6.53;;;5.07;;
85652;SDS011;76083;49.012;8.384;2024-02-28T01:05:09;6.03;;;5.13;;
85652;SDS011;76083;49.012;8.384;2024-02-28T01:06:09;7.03;;;5.95;;
85652;SDS011;76083;49.012;8.384;2024-02-28T01:07:09;7.28;;;5.57;;
85652;SDS011;76083;49.012;8.384;2024-02-28T01:08:10;5.88;;;5.20;;
85652;SDS011;76083;49.012;8.384;2024-02-28T01:09:10;6.10;;;5.07;;
85652;SDS011;76083;49.012;8.384;2024-02-28T01:10:10;6.75;;;5.30;;
85652;SDS011;76083;49.012;8.384;2024-02-28T01:11:10;6.55;;;5.45;;
85652;SDS011;76083;49.012;8.384;2024-02-28T01:12:11;5.95;;;4.97;;
85652;SDS011;76083;49.012;8.384;2024-02-28T01:13:11;6.22;;;5.13;;
85652;SDS011;76083;49.012;8.384;2024-02-28T01:14:11;6.82;;;5.70;;
85652;SDS011;76083;49.012;8.384;2024-02-28T01:15:12;5.78;;;5.20;;
85652;SDS011;76083;49.012;8.384;2024-02-28T01:16:12;5.72;;;5.13;;
85652;SDS011;76083;49.012;8.384;2024-02-28T01:17:12;7.13;;;5.15;;
85652;SDS011;76083;49.012;8.384;2024-02-28T01:18:13;5.75;;;5.10;;
85652;SDS011;76083;49.012;8.384;2024-02-28T01:19:13;6.93;;;5.28;;
85652;SDS011;76083;49.012;8.384;2024-02-28T01:20:14;6.72;;;5.30;;
85652;SDS011;76083;49.012;8.384;2024-02-28T01:21:15;5.97;;;5.35;;
85652;SDS011;76083;49.012;8.384;2024-02-28T01:22:15;6.05;;;5.40;;
85652;SDS011;76083;49.012;8.384;2024-02-28T01:23:15;6.57;;;5.38;;
85652;SDS011;76083;49.012;8.384;2024-02-28T01:24:16;6.80;;;5.75;;
85652;SDS011;76083;49.012;8.384;2024-02-28T01:25:16;6.97;;;5.68;;
85652;SDS011;76083;49.012;8.384;2024-02-28T01:26:16;6.35;;;5.38;;
85652;SDS011;76083;49.012;8.384;2024-02-28T01:27:16;7.97;;;5.55;;
85652;SDS011;76083;49.012;8.384;2024-02-28T01:28:17;6.10;;;5.50;;
85652;SDS011;76083;49.012;8.384;2024-02-28T01:29:17;7.80;;;5.38;;
85652;SDS011;76083;49.012;8.384;2024-02-28T01:30:17;5.43;;;4.85;;
85652;SDS011;76083;49.012;8.384;2024-02-28T01:31:17;5.97;;;4.75;;
85652;SDS011;76083;49.012;8.384;2024-02-28T01:32:18;6.20;;;5.15;;
85652;SDS011;76083;49.012;8.384;2024-02-28T01:33:18;7.65;;;5.40;;
85652;SDS011;76083;49.012;8.384;2024-02-28T01:34:18;7.15;;;5.18;;
85652;SDS011;76083;49.012;8.384;2024-02-28T01:35:18;9.48;;;6.30;;
85652;SDS011;76083;49.012;8.384;2024-02-28T01:36:19;6.82;;;5.13;;
85652;SDS011;76083;49.012;8.384;2024-02-28T01:37:19;6.32;;;5.18;;
85652;SDS011;76083;49.012;8.384;2024-02-28T01:38:19;7.28;;;5.40;;
85652;SDS011;76083;49.012;8.384;2024-02-28T01:39:19;5.75;;;5.25;;
85652;SDS011;76083;49.012;8.384;2024-02-28T01:40:20;6.15;;;5.22;;
85652;SDS011;76083;49.012;8.384;2024-02-28T01:41:20;7.75;;;5.38;;
85652;SDS011;76083;49.012;8.384;2024-02-28T01:42:20;6.20;;;4.50;;
85652;SDS011;76083;49.012;8.384;2024-02-28T01:43:20;5.50;;;4.97;;
85652;SDS011;76083;49.012;8.384;2024-02-28T01:44:21;6.43;;;4.78;;
85652;SDS011;76083;49.012;8.384;2024-02-28T01:45:21;5.53;;;4.68;;
85652;SDS011;76083;49.012;8.384;2024-02-28T01:46:30;7.10;;;5.20;;
85652;SDS011;76083;49.012;8.384;2024-02-28T01:47:31;5.75;;;4.97;;
85652;SDS011;76083;49.012;8.384;2024-02-28T01:48:31;6.75;;;5.53;;
85652;SDS011;76083;49.012;8.384;2024-02-28T01:49:32;5.35;;;4.82;;
85652;SDS011;76083;49.012;8.384;2024-02-28T01:50:33;6.72;;;4.93;;
85652;SDS011;76083;49.012;8.384;2024-02-28T01:51:33;5.53;;;4.72;;
85652;SDS011;76083;49.012;8.384;2024-02-28T01:52:34;5.43;;;4.88;;
85652;SDS011;76083;49.012;8.384;2024-02-28T01:53:36;7.25;;;5.65;;
85652;SDS011;76083;49.012;8.384;2024-02-28T01:54:36;7.65;;;5.75;;
85652;SDS011;76083;49.012;8.384;2024-02-28T01:55:37;6.78;;;4.70;;
85652;SDS011;76083;49.012;8.384;2024-02-28T01:56:38;6.05;;;5.03;;
85652;SDS011;76083;49.012;8.384;2024-02-28T01:57:39;5.50;;;4.70;;
85652;SDS011;76083;49.012;8.384;2024-02-28T01:58:39;6.28;;;4.97;;
85652;SDS011;76083;49.012;8.384;2024-02-28T01:59:40;6.60;;;5.60;;
85652;SDS011;76083;49.012;8.384;2024-02-28T02:00:41;6.38;;;5.18;;
85652;SDS011;76083;49.012;8.384;2024-02-28T02:01:42;6.68;;;4.75;;
85652;SDS011;76083;49.012;8.384;2024-02-28T02:02:42;6.70;;;5.45;;
85652;SDS011;76083;49.012;8.384;2024-02-28T02:03:43;5.75;;;5.13;;
85652;SDS011;76083;49.012;8.384;2024-02-28T02:04:43;5.18;;;4.60;;
85652;SDS011;76083;49.012;8.384;2024-02-28T02:05:44;6.00;;;4.60;;
85652;SDS011;76083;49.012;8.384;2024-02-28T02:06:44;9.02;;;5.55;;
85652;SDS011;76083;49.012;8.384;2024-02-28T02:07:45;5.85;;;5.05;;
85652;SDS011;76083;49.012;8.384;2024-02-28T02:08:45;5.65;;;5.03;;
85652;SDS011;76083;49.012;8.384;2024-02-28T02:09:46;6.05;;;4.97;;
85652;SDS011;76083;49.012;8.384;2024-02-28T02:10:46;5.35;;;4.80;;
85652;SDS011;76083;49.012;8.384;2024-02-28T02:11:46;5.90;;;5.32;;
85652;SDS011;76083;49.012;8.384;2024-02-28T02:12:47;6.93;;;4.72;;
85652;SDS011;76083;49.012;8.384;2024-02-28T02:13:47;6.00;;;5.03;;
85652;SDS011;76083;49.012;8.384;2024-02-28T02:14:51;5.70;;;4.90;;
85652;SDS011;76083;49.012;8.384;2024-02-28T02:15:52;8.40;;;4.88;;
85652;SDS011;76083;49.012;8.384;2024-02-28T02:16:52;5.28;;;4.78;;
85652;SDS011;76083;49.012;8.384;2024-02-28T02:17:52;5.95;;;5.03;;
85652;SDS011;76083;49.012;8.384;2024-02-28T02:18:53;6.18;;;4.90;;
85652;SDS011;76083;49.012;8.384;2024-02-28T02:19:54;6.43;;;5.55;;
85652;SDS011;76083;49.012;8.384;2024-02-28T02:21:02;5.25;;;4.75;;
85652;SDS011;76083;49.012;8.384;2024-02-28T02:22:05;6.07;;;5.00;;
85652;SDS011;76083;49.012;8.384;2024-02-28T02:23:08;5.82;;;5.20;;
85652;SDS011;76083;49.012;8.384;2024-02-28T02:24:08;6.60;;;4.63;;
85652;SDS011;76083;49.012;8.384;2024-02-28T02:25:08;6.53;;;5.07;;
85652;SDS011;76083;49.012;8.384;2024-02-28T02:26:09;5.43;;;4.82;;
85652;SDS011;76083;49.012;8.384;2024-02-28T02:27:09;5.25;;;4.45;;
85652;SDS011;76083;49.012;8.384;2024-02-28T02:28:09;5.78;;;5.18;;
85652;SDS011;76083;49.012;8.384;2024-02-28T02:29:10;6.93;;;5.53;;
85652;SDS011;76083;49.012;8.384;2024-02-28T02:30:10;6.05;;;4.82;;
85652;SDS011;76083;49.012;8.384;2024-02-28T02:31:11;5.97;;;5.10;;
85652;SDS011;76083;49.012;8.384;2024-02-28T02:32:13;5.88;;;4.95;;
85652;SDS011;76083;49.012;8.384;2024-02-28T02:33:13;8.18;;;5.22;;
85652;SDS011;76083;49.012;8.384;2024-02-28T02:34:14;6.45;;;5.43;;
85652;SDS011;76083;49.012;8.384;2024-02-28T02:35:14;6.05;;;5.15;;
85652;SDS011;76083;49.012;8.384;2024-02-28T02:36:14;7.85;;;5.50;;
85652;SDS011;76083;49.012;8.384;2024-02-28T02:37:14;5.45;;;4.72;;
85652;SDS011;76083;49.012;8.384;2024-02-28T02:38:15;6.50;;;4.85;;
85652;SDS011;76083;49.012;8.384;2024-02-28T02:39:15;6.35;;;5.55;;
85652;SDS011;76083;49.012;8.384;2024-02-28T02:40:15;5.53;;;4.68;;
85652;SDS011;76083;49.012;8.384;2024-02-28T02:41:16;5.72;;;4.93;;
85652;SDS011;76083;49.012;8.384;2024-02-28T02:42:16;6.07;;;4.97;;
85652;SDS011;76083;49.012;8.384;2024-02-28T02:43:16;5.05;;;4.55;;
85652;SDS011;76083;49.012;8.384;2024-02-28T02:44:17;5.53;;;4.70;;
85652;SDS011;76083;49.012;8.384;2024-02-28T02:45:17;6.45;;;4.80;;
85652;SDS011;76083;49.012;8.384;2024-02-28T02:46:17;5.55;;;5.05;;
85652;SDS011;76083;49.012;8.384;2024-02-28T02:47:18;5.30;;;4.25;;
85652;SDS011;76083;49.012;8.384;2024-02-28T02:48:18;6.40;;;5.05;;
85652;SDS011;76083;49.012;8.384;2024-02-28T02:49:18;4.90;;;4.40;;
85652;SDS011;76083;49.012;8.384;2024-02-28T02:50:18;7.13;;;4.75;;
85652;SDS011;76083;49.012;8.384;2024-02-28T02:51:19;5.75;;;4.63;;
85652;SDS011;76083;49.012;8.384;2024-02-28T02:52:19;5.90;;;5.22;;
85652;SDS011;76083;49.012;8.384;2024-02-28T02:53:20;4.88;;;4.35;;
85652;SDS011;76083;49.012;8.384;2024-02-28T02:54:20;7.45;;;4.43;;
85652;SDS011;76083;49.012;8.384;2024-02-28T02:55:20;5.65;;;5.05;;
85652;SDS011;76083;49.012;8.384;2024-02-28T02:56:21;6.40;;;5.15;;
85652;SDS011;76083;49.012;8.384;2024-02-28T02:57:21;5.15;;;4.38;;
85652;SDS011;76083;49.012;8.384;2024-02-28T02:58:21;5.65;;;4.85;;
85652;SDS011;76083;49.012;8.384;2024-02-28T02:59:21;5.30;;;4.80;;
85652;SDS011;76083;49.012;8.384;2024-02-28T03:00:22;4.55;;;4.15;;
85652;SDS011;76083;49.012;8.384;2024-02-28T03:01:22;6.57;;;4.88;;
85652;SDS011;76083;49.012;8.384;2024-02-28T03:02:22;5.38;;;4.88;;
85652;SDS011;76083;49.012;8.384;2024-02-28T03:03:22;6.10;;;4.47;;
85652;SDS011;76083;49.012;8.384;2024-02-28T03:04:23;5.43;;;4.55;;
85652;SDS011;76083;49.012;8.384;2024-02-28T03:05:23;5.63;;;4.97;;
85652;SDS011;76083;49.012;8.384;2024-02-28T03:06:23;5.13;;;4.60;;
85652;SDS011;76083;49.012;8.384;2024-02-28T03:07:23;5.85;;;4.32;;
85652;SDS011;76083;49.012;8.384;2024-02-28T03:08:24;6.68;;;5.30;;
85652;SDS011;76083;49.012;8.384;2024-02-28T03:09:24;5.28;;;4.75;;
85652;SDS011;76083;49.012;8.384;2024-02-28T03:10:24;5.07;;;4.50;;
85652;SDS011;76083;49.012;8.384;2024-02-28T03:11:24;6.25;;;4.57;;
85652;SDS011;76083;49.012;8.384;2024-02-28T03:12:25;5.20;;;4.50;;
85652;SDS011;76083;49.012;8.384;2024-02-28T03:13:25;5.90;;;4.85;;
85652;SDS011;76083;49.012;8.384;2024-02-28T03:14:25;8.70;;;5.63;;
85652;SDS011;76083;49.012;8.384;2024-02-28T03:15:26;5.50;;;4.85;;
85652;SDS011;76083;49.012;8.384;2024-02-28T03:16:26;5.30;;;4.80;;
85652;SDS011;76083;49.012;8.384;2024-02-28T03:17:26;4.97;;;4.53;;
85652;SDS011;76083;49.012;8.384;2024-02-28T03:18:27;6.00;;;4.90;;
85652;SDS011;76083;49.012;8.384;2024-02-28T03:19:27;5.38;;;4.65;;
85652;SDS011;76083;49.012;8.384;2024-02-28T03:20:27;5.57;;;4.95;;
85652;SDS011;76083;49.012;8.384;2024-02-28T03:21:27;6.07;;;4.97;;
85652;SDS011;76083;49.012;8.384;2024-02-28T03:22:28;4.90;;;4.38;;
85652;SDS011;76083;49.012;8.384;2024-02-28T03:23:28;5.60;;;5.05;;
85652;SDS011;76083;49.012;8.384;2024-02-28T03:24:28;6.32;;;4.70;;
85652;SDS011;76083;49.012;8.384;2024-02-28T03:25:29;6.32;;;4.78;;
85652;SDS011;76083;49.012;8.384;2024-02-28T03:26:29;6.80;;;5.03;;
85652;SDS011;76083;49.012;8.384;2024-02-28T03:27:29;6.20;;;4.75;;
85652;SDS011;76083;49.012;8.384;2024-02-28T03:28:30;5.20;;;4.47;;
85652;SDS011;76083;49.012;8.384;2024-02-28T03:29:30;5.63;;;4.93;;
85652;SDS011;76083;49.012;8.384;2024-02-28T03:30:30;5.53;;;4.97;;
85652;SDS011;76083;49.012;8.384;2024-02-28T03:31:31;6.18;;;4.45;;
85652;SDS011;76083;49.012;8.384;2024-02-28T03:32:31;5.85;;;4.63;;
85652;SDS011;76083;49.012;8.384;2024-02-28T03:33:31;5.85;;;4.85;;
85652;SDS011;76083;49.012;8.384;2024-02-28T03:34:31;5.60;;;4.88;;
85652;SDS011;76083;49.012;8.384;2024-02-28T03:35:32;5.95;;;4.90;;
85652;SDS011;76083;49.012;8.384;2024-02-28T03:36:32;6.22;;;5.13;;
85652;SDS011;76083;49.012;8.384;2024-02-28T03:37:32;6.30;;;4.45;;
85652;SDS011;76083;49.012;8.384;2024-02-28T03:38:32;5.93;;;5.10;;
85652;SDS011;76083;49.012;8.384;2024-02-28T03:39:33;6.18;;;5.10;;
85652;SDS011;76083;49.012;8.384;2024-02-28T03:40:33;6.03;;;4.78;;
85652;SDS011;76083;49.012;8.384;2024-02-28T03:41:33;5.00;;;4.50;;
85652;SDS011;76083;49.012;8.384;2024-02-28T03:42:33;5.60;;;4.82;;
85652;SDS011;76083;49.012;8.384;2024-02-28T03:43:34;7.55;;;4.85;;
85652;SDS011;76083;49.012;8.384;2024-02-28T03:44:34;6.47;;;4.88;;
85652;SDS011;76083;49.012;8.384;2024-02-28T03:45:37;6.15;;;4.45;;
85652;SDS011;76083;49.012;8.384;2024-02-28T03:46:37;5.85;;;4.57;;
85652;SDS011;76083;49.012;8.384;2024-02-28T03:47:37;5.50;;;4.70;;
85652;SDS011;76083;49.012;8.384;2024-02-28T03:48:38;5.43;;;4.47;;
85652;SDS011;76083;49.012;8.384;2024-02-28T03:49:38;5.32;;;4.82;;
85652;SDS011;76083;49.012;8.384;2024-02-28T03:50:38;5.63;;;5.07;;
85652;SDS011;76083;49.012;8.384;2024-02-28T03:51:39;5.25;;;4.55;;
85652;SDS011;76083;49.012;8.384;2024-02-28T03:52:40;4.97;;;4.47;;
85652;SDS011;76083;49.012;8.384;2024-02-28T03:53:40;6.45;;;5.25;;
85652;SDS011;76083;49.012;8.384;2024-02-28T03:54:43;4.72;;;4.25;;
85652;SDS011;76083;49.012;8.384;2024-02-28T03:55:44;5.40;;;4.22;;
85652;SDS011;76083;49.012;8.384;2024-02-28T03:56:44;5.57;;;4.65;;
85652;SDS011;76083;49.012;8.384;2024-02-28T03:57:48;5.50;;;4.90;;
85652;SDS011;76083;49.012;8.384;2024-02-28T03:58:48;5.53;;;5.03;;
85652;SDS011;76083;49.012;8.384;2024-02-28T03:59:48;5.25;;;4.72;;
85652;SDS011;76083;49.012;8.384;2024-02-28T04:00:49;4.70;;;4.30;;
85652;SDS011;76083;49.012;8.384;2024-02-28T04:01:49;5.90;;;5.30;;
85652;SDS011;76083;49.012;8.384;2024-02-28T04:02:49;5.18;;;4.68;;
85652;SDS011;76083;49.012;8.384;2024-02-28T04:03:49;7.47;;;4.63;;
85652;SDS011;76083;49.012;8.384;2024-02-28T04:04:50;6.70;;;5.03;;
85652;SDS011;76083;49.012;8.384;2024-02-28T04:05:50;5.72;;;4.82;;
85652;SDS011;76083;49.012;8.384;2024-02-28T04:06:51;5.63;;;5.10;;
85652;SDS011;76083;49.012;8.384;2024-02-28T04:07:52;5.45;;;4.95;;
85652;SDS011;76083;49.012;8.384;2024-02-28T04:08:52;5.00;;;4.50;;
85652;SDS011;76083;49.012;8.384;2024-02-28T04:09:52;6.15;;;4.47;;
85652;SDS011;76083;49.012;8.384;2024-02-28T04:10:52;6.72;;;5.30;;
85652;SDS011;76083;49.012;8.384;2024-02-28T04:11:53;5.13;;;4.63;;
85652;SDS011;76083;49.012;8.384;2024-02-28T04:12:54;5.88;;;5.05;;
85652;SDS011;76083;49.012;8.384;2024-02-28T04:13:54;6.20;;;4.80;;
85652;SDS011;76083;49.012;8.384;2024-02-28T04:14:54;5.68;;;4.75;;
85652;SDS011;76083;49.012;8.384;2024-02-28T04:15:54;5.13;;;4.63;;
85652;SDS011;76083;49.012;8.384;2024-02-28T04:16:55;7.22;;;4.85;;
85652;SDS011;76083;49.012;8.384;2024-02-28T04:17:55;6.88;;;5.13;;
85652;SDS011;76083;49.012;8.384;2024-02-28T04:18:55;5.93;;;5.10;;
85652;SDS011;76083;49.012;8.384;2024-02-28T04:19:55;5.97;;;5.07;;
85652;SDS011;76083;49.012;8.384;2024-02-28T04:20:56;5.38;;;4.57;;
85652;SDS011;76083;49.012;8.384;2024-02-28T04:21:56;5.75;;;5.13;;
85652;SDS011;76083;49.012;8.384;2024-02-28T04:22:56;5.20;;;4.65;;
85652;SDS011;76083;49.012;8.384;2024-02-28T04:23:56;5.72;;;4.50;;
85652;SDS011;76083;49.012;8.384;2024-02-28T04:24:57;5.20;;;4.70;;
85652;SDS011;76083;49.012;8.384;2024-02-28T04:25:57;5.35;;;4.85;;
85652;SDS011;76083;49.012;8.384;2024-02-28T04:26:58;5.45;;;4.70;;
85652;SDS011;76083;49.012;8.384;2024-02-28T04:27:58;6.38;;;4.95;;
85652;SDS011;76083;49.012;8.384;2024-02-28T04:28:58;5.28;;;4.68;;
85652;SDS011;76083;49.012;8.384;2024-02-28T04:29:59;6.10;;;5.03;;
85652;SDS011;76083;49.012;8.384;2024-02-28T04:30:59;5.90;;;5.38;;
85652;SDS011;76083;49.012;8.384;2024-02-28T04:31:59;6.45;;;5.43;;
85652;SDS011;76083;49.012;8.384;2024-02-28T04:32:59;4.95;;;4.50;;
85652;SDS011;76083;49.012;8.384;2024-02-28T04:34:00;6.47;;;4.90;;
85652;SDS011;76083;49.012;8.384;2024-02-28T04:35:00;5.63;;;4.97;;
85652;SDS011;76083;49.012;8.384;2024-02-28T04:36:00;7.57;;;4.75;;
85652;SDS011;76083;49.012;8.384;2024-02-28T04:37:00;5.95;;;5.35;;
85652;SDS011;76083;49.012;8.384;2024-02-28T04:38:01;6.57;;;4.97;;
85652;SDS011;76083;49.012;8.384;2024-02-28T04:39:01;5.10;;;4.60;;
85652;SDS011;76083;49.012;8.384;2024-02-28T04:40:02;5.55;;;4.80;;
85652;SDS011;76083;49.012;8.384;2024-02-28T04:41:03;5.50;;;5.00;;
85652;SDS011;76083;49.012;8.384;2024-02-28T04:42:03;7.00;;;5.38;;
85652;SDS011;76083;49.012;8.384;2024-02-28T04:43:03;9.30;;;5.28;;
85652;SDS011;76083;49.012;8.384;2024-02-28T04:44:04;6.00;;;5.40;;
85652;SDS011;76083;49.012;8.384;2024-02-28T04:45:04;5.22;;;4.72;;
85652;SDS011;76083;49.012;8.384;2024-02-28T04:46:05;9.75;;;5.13;;
85652;SDS011;76083;49.012;8.384;2024-02-28T04:47:05;5.45;;;4.75;;
85652;SDS011;76083;49.012;8.384;2024-02-28T04:48:05;5.85;;;4.90;;
85652;SDS011;76083;49.012;8.384;2024-02-28T04:49:06;5.82;;;4.63;;
85652;SDS011;76083;49.012;8.384;2024-02-28T04:50:06;5.85;;;5.22;;
85652;SDS011;76083;49.012;8.384;2024-02-28T04:51:07;6.55;;;5.15;;
85652;SDS011;76083;49.012;8.384;2024-02-28T04:52:07;5.57;;;4.78;;
85652;SDS011;76083;49.012;8.384;2024-02-28T04:53:07;5.82;;;5.22;;
85652;SDS011;76083;49.012;8.384;2024-02-28T04:54:07;9.07;;;5.65;;
85652;SDS011;76083;49.012;8.384;2024-02-28T04:55:08;6.10;;;4.95;;
85652;SDS011;76083;49.012;8.384;2024-02-28T04:56:08;5.40;;;4.43;;
85652;SDS011;76083;49.012;8.384;2024-02-28T04:57:10;6.85;;;5.07;;
85652;SDS011;76083;49.012;8.384;2024-02-28T04:58:10;6.95;;;4.75;;
85652;SDS011;76083;49.012;8.384;2024-02-28T04:59:11;5.60;;;4.95;;
85652;SDS011;76083;49.012;8.384;2024-02-28T05:00:11;5.18;;;4.68;;
85652;SDS011;76083;49.012;8.384;2024-02-28T05:01:12;6.90;;;5.10;;
85652;SDS011;76083;49.012;8.384;2024-02-28T05:02:12;5.30;;;4.40;;
85652;SDS011;76083;49.012;8.384;2024-02-28T05:03:12;6.50;;;5.13;;
85652;SDS011;76083;49.012;8.384;2024-02-28T05:04:13;5.88;;;5.30;;
85652;SDS011;76083;49.012;8.384;2024-02-28T05:05:13;5.22;;;4.72;;
85652;SDS011;76083;49.012;8.384;2024-02-28T05:06:14;5.95;;;4.93;;
85652;SDS011;76083;49.012;8.384;2024-02-28T05:07:14;6.20;;;5.18;;
85652;SDS011;76083;49.012;8.384;2024-02-28T05:08:14;6.10;;;5.45;;
85652;SDS011;76083;49.012;8.384;2024-02-28T05:09:14;6.55;;;5.75;;
85652;SDS011;76083;49.012;8.384;2024-02-28T05:10:15;6.68;;;4.50;;
85652;SDS011;76083;49.012;8.384;2024-02-28T05:11:15;6.03;;;5.05;;
85652;SDS011;76083;49.012;8.384;2024-02-28T05:12:15;5.60;;;4.88;;
85652;SDS011;76083;49.012;8.384;2024-02-28T05:13:15;7.40;;;4.85;;
85652;SDS011;76083;49.012;8.384;2024-02-28T05:14:16;6.40;;;5.40;;
85652;SDS011;76083;49.012;8.384;2024-02-28T05:15:16;6.68;;;5.25;;
85652;SDS011;76083;49.012;8.384;2024-02-28T05:16:16;5.80;;;5.20;;
85652;SDS011;76083;49.012;8.384;2024-02-28T05:17:17;5.88;;;4.55;;
85652;SDS011;76083;49.012;8.384;2024-02-28T05:18:17;5.70;;;5.03;;
85652;SDS011;76083;49.012;8.384;2024-02-28T05:19:17;5.47;;;4.75;;
85652;SDS011;76083;49.012;8.384;2024-02-28T05:20:17;6.95;;;4.97;;
85652;SDS011;76083;49.012;8.384;2024-02-28T05:21:18;5.38;;;4.88;;
85652;SDS011;76083;49.012;8.384;2024-02-28T05:22:18;5.90;;;4.82;;
85652;SDS011;76083;49.012;8.384;2024-02-28T05:23:18;5.50;;;4.97;;
85652;SDS011;76083;49.012;8.384;2024-02-28T05:24:18;6.18;;;5.38;;
85652;SDS011;76083;49.012;8.384;2024-02-28T05:25:19;10.27;;;5.68;;
85652;SDS011;76083;49.012;8.384;2024-02-28T05:26:19;6.45;;;5.40;;
85652;SDS011;76083;49.012;8.384;2024-02-28T05:27:19;7.75;;;5.47;;
85652;SDS011;76083;49.012;8.384;2024-02-28T05:28:19;5.90;;;5.30;;
85652;SDS011;76083;49.012;8.384;2024-02-28T05:29:20;5.65;;;4.80;;
85652;SDS011;76083;49.012;8.384;2024-02-28T05:30:20;5.60;;;5.00;;
85652;SDS011;76083;49.012;8.384;2024-02-28T05:31:21;6.05;;;5.07;;
85652;SDS011;76083;49.012;8.384;2024-02-28T05:32:23;7.47;;;5.40;;
85652;SDS011;76083;49.012;8.384;2024-02-28T05:33:23;5.70;;;4.95;;
85652;SDS011;76083;49.012;8.384;2024-02-28T05:34:23;5.82;;;5.22;;
85652;SDS011;76083;49.012;8.384;2024-02-28T05:35:23;7.78;;;5.93;;
85652;SDS011;76083;49.012;8.384;2024-02-28T05:36:24;6.05;;;4.95;;
85652;SDS011;76083;49.012;8.384;2024-02-28T05:37:26;6.72;;;4.97;;
85652;SDS011;76083;49.012;8.384;2024-02-28T05:38:26;5.53;;;4.90;;
85652;SDS011;76083;49.012;8.384;2024-02-28T05:39:26;6.95;;;4.85;;
85652;SDS011;76083;49.012;8.384;2024-02-28T05:40:27;6.57;;;5.07;;
85652;SDS011;76083;49.012;8.384;2024-02-28T05:41:27;5.95;;;5.20;;
85652;SDS011;76083;49.012;8.384;2024-02-28T05:42:28;7.07;;;5.10;;
85652;SDS011;76083;49.012;8.384;2024-02-28T05:43:28;6.90;;;5.50;;
85652;SDS011;76083;49.012;8.384;2024-02-28T05:44:28;5.88;;;5.15;;
85652;SDS011;76083;49.012;8.384;2024-02-28T05:45:28;12.98;;;5.60;;
85652;SDS011;76083;49.012;8.384;2024-02-28T05:46:28;7.57;;;5.50;;
85652;SDS011;76083;49.012;8.384;2024-02-28T05:47:29;7.95;;;5.35;;
85652;SDS011;76083;49.012;8.384;2024-02-28T05:48:29;10.07;;;6.38;;
85652;SDS011;76083;49.012;8.384;2024-02-28T05:49:29;10.43;;;6.15;;
85652;SDS011;76083;49.012;8.384;2024-02-28T05:50:30;16.80;;;7.65;;
85652;SDS011;76083;49.012;8.384;2024-02-28T05:51:30;16.73;;;7.80;;
85652;SDS011;76083;49.012;8.384;2024-02-28T05:52:30;17.35;;;8.85;;
85652;SDS011;76083;49.012;8.384;2024-02-28T05:53:31;16.92;;;9.50;;
85652;SDS011;76083;49.012;8.384;2024-02-28T05:54:31;18.13;;;9.18;;
85652;SDS011;76083;49.012;8.384;2024-02-28T05:55:31;27.17;;;11.38;;
85652;SDS011;76083;49.012;8.384;2024-02-28T05:56:31;30.08;;;11.68;;
85652;SDS011;76083;49.012;8.384;2024-02-28T05:57:32;31.52;;;12.05;;
85652;SDS011;76083;49.012;8.384;2024-02-28T05:58:32;45.10;;;14.88;;
85652;SDS011;76083;49.012;8.384;2024-02-28T05:59:32;49.88;;;16.17;;
85652;SDS011;76083;49.012;8.384;2024-02-28T06:00:34;47.63;;;16.10;;
85652;SDS011;76083;49.012;8.384;2024-02-28T06:01:34;50.13;;;16.63;;
85652;SDS011;76083;49.012;8.384;2024-02-28T06:02:36;45.75;;;16.58;;
85652;SDS011;76083;49.012;8.384;2024-02-28T06:03:37;38.97;;;13.63;;